createdAt,value
2018-07-08T00:01:25.217Z,22.2
2018-07-08T00:11:24.451Z,22.1
2018-07-08T00:21:23.688Z,22.1
2018-07-08T00:31:22.924Z,22.1
2018-07-08T00:41:22.160Z,22
2018-07-08T00:51:21.395Z,22
2018-07-08T01:01:20.633Z,21.9
2018-07-08T01:11:19.867Z,21.9
2018-07-08T01:21:19.104Z,21.9
2018-07-08T01:31:18.337Z,21.9
2018-07-08T01:41:17.574Z,21.9
2018-07-08T01:51:16.808Z,21.9
2018-07-08T02:01:16.052Z,21.9
2018-07-08T02:11:15.283Z,21.9
2018-07-08T02:21:14.517Z,21.8
2018-07-08T02:31:13.755Z,21.8
2018-07-08T02:41:12.987Z,21.8
2018-07-08T02:51:12.233Z,21.8
2018-07-08T03:01:11.454Z,21.8
2018-07-08T03:11:10.689Z,21.8
2018-07-08T03:21:09.923Z,21.8
2018-07-08T03:31:09.160Z,21.8
2018-07-08T03:41:08.393Z,21.7
2018-07-08T03:51:07.632Z,21.7
2018-07-08T04:01:06.862Z,21.8
2018-07-08T04:11:06.097Z,21.8
2018-07-08T04:21:05.330Z,21.7
2018-07-08T04:31:04.575Z,21.6
2018-07-08T04:41:03.797Z,21.6
2018-07-08T04:51:03.033Z,21.7
2018-07-08T05:01:02.338Z,21.8
2018-07-08T05:11:01.504Z,21.8
2018-07-08T05:21:00.737Z,21.8
2018-07-08T05:30:59.975Z,21.8
2018-07-08T05:40:59.206Z,21.8
2018-07-08T05:50:58.440Z,21.8
2018-07-08T06:00:57.674Z,21.9
2018-07-08T06:10:56.912Z,21.9
2018-07-08T06:20:56.169Z,21.9
2018-07-08T06:30:55.380Z,21.9
2018-07-08T06:40:54.614Z,22.1
2018-07-08T06:50:53.850Z,22.2
2018-07-08T07:00:53.084Z,22.1
2018-07-08T07:10:52.319Z,22.1
2018-07-08T07:20:51.555Z,22.1
2018-07-08T07:30:50.790Z,22
2018-07-08T07:40:50.024Z,22.1
2018-07-08T07:50:49.260Z,22.1
2018-07-08T08:00:48.498Z,22.3
2018-07-08T08:10:47.846Z,22.4
2018-07-08T08:20:46.966Z,22.6
2018-07-08T08:30:46.198Z,22.6
2018-07-08T08:40:45.436Z,22.8
2018-07-08T08:50:44.671Z,22.9
2018-07-08T09:00:43.905Z,22.9
2018-07-08T09:10:43.158Z,22.9
2018-07-08T09:20:42.372Z,22.8
2018-07-08T09:30:41.623Z,22.6
2018-07-08T09:40:40.842Z,22.4
2018-07-08T09:50:40.076Z,22.3
2018-07-08T10:00:39.311Z,22.4
2018-07-08T10:10:38.552Z,22.4
2018-07-08T10:20:37.781Z,22.4
2018-07-08T10:30:37.027Z,22.5
2018-07-08T10:40:36.257Z,22.6
2018-07-08T10:50:35.546Z,22.6
2018-07-08T11:00:34.722Z,22.6
2018-07-08T11:10:34.003Z,22.7
2018-07-08T11:20:33.212Z,22.9
2018-07-08T11:30:32.429Z,22.9
2018-07-08T11:40:31.660Z,23.1
2018-07-08T11:50:30.898Z,23.2
2018-07-08T12:00:30.131Z,23.3
2018-07-08T12:10:29.377Z,23.6
2018-07-08T12:20:28.601Z,24.6
2018-07-08T12:30:27.838Z,24.9
2018-07-08T12:40:27.071Z,25.2
2018-07-08T12:50:26.306Z,25.9
2018-07-08T13:00:25.541Z,25.1
2018-07-08T13:10:24.778Z,24.6
2018-07-08T13:20:24.065Z,24.4
2018-07-08T13:30:23.252Z,24.2
2018-07-08T13:40:22.490Z,24
2018-07-08T13:50:21.732Z,23.8
2018-07-08T14:00:20.955Z,23.2
2018-07-08T14:10:20.194Z,22.9
2018-07-08T14:20:19.591Z,22.8
2018-07-08T14:30:18.664Z,22.9
2018-07-08T14:40:17.902Z,22.8
2018-07-08T14:50:17.136Z,22.5
2018-07-08T15:00:16.376Z,22.3
2018-07-08T15:10:15.621Z,22.1
2018-07-08T15:20:14.848Z,22.1
2018-07-08T15:30:14.084Z,22.1
2018-07-08T15:40:13.319Z,22.3
2018-07-08T15:50:12.561Z,22.2
2018-07-08T16:00:11.791Z,22.2
2018-07-08T16:10:11.030Z,22.1
2018-07-08T16:20:10.269Z,21.8
2018-07-08T16:30:09.509Z,21.6
2018-07-08T16:40:08.746Z,21.3
2018-07-08T16:50:07.984Z,21.2
2018-07-08T17:00:07.226Z,21
2018-07-08T17:10:06.460Z,21
2018-07-08T17:20:05.696Z,21.1
2018-07-08T17:30:04.940Z,21.2
2018-07-08T17:40:04.181Z,21.2
2018-07-08T17:50:03.419Z,21.2
2018-07-08T18:00:02.648Z,21.2
2018-07-08T18:10:01.887Z,21.2
2018-07-08T18:20:01.132Z,21.3
2018-07-08T18:30:00.365Z,21.3
2018-07-08T18:39:59.613Z,21.3
2018-07-08T18:49:58.841Z,21.4
2018-07-08T18:59:58.080Z,21.4
2018-07-08T19:09:57.317Z,21.3
2018-07-08T19:19:56.554Z,21.3
2018-07-08T19:29:55.792Z,21.3
2018-07-08T19:39:55.031Z,21.2
2018-07-08T19:49:54.268Z,21.2
2018-07-08T19:59:53.505Z,21.2
2018-07-08T20:09:52.743Z,21.2
2018-07-08T20:19:51.979Z,21.2
2018-07-08T20:29:51.217Z,21.2
2018-07-08T20:39:50.461Z,21.2
2018-07-08T20:49:49.696Z,21.2
2018-07-08T20:59:48.929Z,21.2
2018-07-08T21:09:48.172Z,21.2
2018-07-08T21:19:47.403Z,21.2
2018-07-08T21:29:46.648Z,21.3
2018-07-08T21:39:45.877Z,21.4
2018-07-08T21:49:45.118Z,21.4
2018-07-08T21:59:44.350Z,21.4
2018-07-08T22:09:43.591Z,21.4
2018-07-08T22:19:42.825Z,21.5
2018-07-08T22:29:42.062Z,21.6
2018-07-08T22:39:41.300Z,21.6
2018-07-08T22:49:40.542Z,21.6
2018-07-08T22:59:39.772Z,21.7
2018-07-08T23:09:39.009Z,21.8
2018-07-08T23:19:38.296Z,21.8
2018-07-08T23:29:37.483Z,21.8
2018-07-08T23:39:36.719Z,21.8
2018-07-08T23:49:35.956Z,21.8
2018-07-08T23:59:35.193Z,21.8
